Time;durP1;ratioP1;P1;durP2;ratioP2;P2;SDS_P1;SDS_P2;PMS_P1;PMS_P2;Temp;Humidity;BMP_temperature;BMP_pressure;BME280_temperature;BME280_humidity;BME280_pressure;Samples;Min_cycle;Max_cycle;Signal;HPM_P1;HPM_P2
2022/07/22 00:00:11;;;;;;;7.78;5.00;;;20.80;99.90;;;;;;5033752;28;20064;-73
2022/07/22 00:02:37;;;;;;;9.60;4.88;;;20.80;99.90;;;;;;5034862;28;20030;-71
2022/07/22 00:05:03;;;;;;;8.75;5.53;;;20.80;99.90;;;;;;5034707;28;20402;-72
2022/07/22 00:07:29;;;;;;;9.52;5.85;;;20.90;99.90;;;;;;5034930;28;20406;-73
2022/07/22 00:09:55;;;;;;;6.68;5.10;;;20.90;99.90;;;;;;5034868;28;20029;-73
2022/07/22 00:12:21;;;;;;;9.93;4.93;;;20.90;99.90;;;;;;5034725;28;20029;-75
2022/07/22 00:14:46;;;;;;;9.43;5.35;;;20.90;99.90;;;;;;5034639;28;20030;-73
2022/07/22 00:17:12;;;;;;;6.20;4.60;;;20.90;99.90;;;;;;5034496;28;20452;-72
2022/07/22 00:19:38;;;;;;;6.53;5.13;;;20.90;99.90;;;;;;5034747;28;20025;-71
2022/07/22 00:22:04;;;;;;;8.85;5.28;;;20.90;99.90;;;;;;5034317;28;20061;-72
2022/07/22 00:24:30;;;;;;;10.32;5.85;;;20.80;99.90;;;;;;5034350;28;20379;-72
2022/07/22 00:26:55;;;;;;;8.27;5.40;;;20.80;99.90;;;;;;5033906;28;20048;-73
2022/07/22 00:29:21;;;;;;;8.77;5.63;;;20.90;99.90;;;;;;5034435;28;20108;-72
2022/07/22 00:31:47;;;;;;;7.95;6.28;;;20.90;99.90;;;;;;5034531;28;20029;-71
2022/07/22 00:34:13;;;;;;;9.23;6.45;;;20.80;99.90;;;;;;5034297;28;20040;-72
2022/07/22 00:36:38;;;;;;;8.50;5.05;;;20.80;99.90;;;;;;5034055;28;20025;-71
2022/07/22 00:39:04;;;;;;;8.38;5.65;;;20.90;99.90;;;;;;5034022;28;20511;-72
2022/07/22 00:41:30;;;;;;;8.85;5.70;;;20.90;99.90;;;;;;5033857;28;20053;-71
2022/07/22 00:44:07;;;;;;;8.65;6.20;;;21.00;99.80;;;;;;5033797;28;20356;-72
2022/07/22 00:46:34;;;;;;;7.53;6.57;;;20.90;99.90;;;;;;5034238;28;20021;-72
2022/07/22 00:49:00;;;;;;;15.93;6.77;;;20.90;99.90;;;;;;5033996;28;20037;-71
2022/07/22 00:51:28;;;;;;;11.45;6.97;;;20.70;99.90;;;;;;5033654;28;20040;-72
2022/07/22 00:53:54;;;;;;;6.95;5.70;;;20.80;99.90;;;;;;5033810;28;20088;-72
2022/07/22 00:56:21;;;;;;;9.73;6.50;;;20.90;99.90;;;;;;5032864;28;20044;-71
2022/07/22 00:58:50;;;;;;;11.45;7.43;;;20.90;99.90;;;;;;5033704;28;20387;-72
2022/07/22 01:01:17;;;;;;;7.60;6.15;;;20.90;99.90;;;;;;5032029;28;20081;-72
2022/07/22 01:03:43;;;;;;;9.05;6.57;;;20.90;99.90;;;;;;5032423;28;20083;-72
2022/07/22 01:06:09;;;;;;;9.25;6.50;;;20.90;99.90;;;;;;5033509;28;20025;-72
2022/07/22 01:08:35;;;;;;;10.43;6.85;;;20.90;99.90;;;;;;5033696;28;20120;-73
2022/07/22 01:11:11;;;;;;;8.38;6.75;;;20.80;99.90;;;;;;5033353;28;20105;-72
2022/07/22 01:13:37;;;;;;;12.32;7.25;;;20.70;99.90;;;;;;5033869;28;20025;-72
2022/07/22 01:16:08;;;;;;;8.57;6.57;;;20.70;99.90;;;;;;5033644;28;20052;-72
2022/07/22 01:18:34;;;;;;;11.32;6.90;;;20.80;99.90;;;;;;5033370;28;20041;-72
2022/07/22 01:21:00;;;;;;;8.32;6.47;;;20.80;99.90;;;;;;5033196;28;20037;-70
2022/07/22 01:23:26;;;;;;;9.23;7.05;;;20.90;99.90;;;;;;5033132;28;20113;-71
2022/07/22 01:25:52;;;;;;;9.23;6.90;;;20.90;99.90;;;;;;5032890;28;20124;-72
2022/07/22 01:28:18;;;;;;;9.20;6.75;;;20.90;99.90;;;;;;5033008;28;20340;-72
2022/07/22 01:30:44;;;;;;;11.85;8.55;;;20.90;99.90;;;;;;5032662;28;20029;-73
2022/07/22 01:33:10;;;;;;;9.52;7.43;;;20.60;99.90;;;;;;5032899;28;20085;-72
2022/07/22 01:35:35;;;;;;;9.68;8.38;;;20.70;99.90;;;;;;5026245;28;20026;-72
2022/07/22 01:38:01;;;;;;;10.93;8.98;;;20.70;99.90;;;;;;5012162;28;20376;-72
2022/07/22 01:40:27;;;;;;;11.80;9.63;;;20.50;99.90;;;;;;5013601;28;20030;-72
2022/07/22 01:42:53;;;;;;;12.75;9.40;;;20.40;99.90;;;;;;5011762;28;20037;-72
2022/07/22 01:45:18;;;;;;;13.73;9.27;;;20.50;99.90;;;;;;5013029;28;20041;-71
2022/07/22 01:47:44;;;;;;;10.85;8.88;;;20.60;99.90;;;;;;5012599;28;20034;-72
2022/07/22 01:50:11;;;;;;;10.85;8.82;;;20.70;99.90;;;;;;5012771;28;20360;-72
2022/07/22 01:52:38;;;;;;;13.37;8.43;;;20.70;99.90;;;;;;5013576;28;20184;-71
2022/07/22 01:55:06;;;;;;;10.43;7.63;;;20.80;99.90;;;;;;5012410;28;20123;-72
2022/07/22 01:57:31;;;;;;;9.80;8.20;;;20.80;99.90;;;;;;5012993;28;20041;-72
2022/07/22 01:59:57;;;;;;;11.38;8.38;;;20.80;99.90;;;;;;5012316;28;20031;-71
2022/07/22 02:02:23;;;;;;;8.88;7.50;;;20.50;99.90;;;;;;5011602;28;20034;-72
2022/07/22 02:04:51;;;;;;;9.07;7.70;;;20.50;99.90;;;;;;5013068;28;20456;-73
2022/07/22 02:07:17;;;;;;;10.20;7.10;;;20.50;99.90;;;;;;5011347;28;20060;-72
2022/07/22 02:09:43;;;;;;;6.47;5.78;;;20.70;99.90;;;;;;5011468;28;20457;-73
2022/07/22 02:12:08;;;;;;;5.07;4.18;;;20.50;99.90;;;;;;5010929;28;20044;-71
2022/07/22 02:14:34;;;;;;;7.18;3.67;;;20.40;99.90;;;;;;5012712;28;20076;-72
2022/07/22 02:16:59;;;;;;;4.22;3.35;;;20.50;99.90;;;;;;5011668;28;20500;-73
2022/07/22 02:19:25;;;;;;;3.90;3.00;;;20.40;99.90;;;;;;5013055;28;20326;-73
2022/07/22 02:21:51;;;;;;;4.22;3.00;;;20.10;99.90;;;;;;5012735;28;20038;-73
2022/07/22 02:24:17;;;;;;;3.63;2.88;;;20.10;99.90;;;;;;5012491;28;20416;-73
2022/07/22 02:26:42;;;;;;;5.10;3.20;;;20.00;99.90;;;;;;5012298;28;20137;-71
2022/07/22 02:29:08;;;;;;;6.25;2.85;;;20.00;99.90;;;;;;5012879;28;20091;-72
2022/07/22 02:31:33;;;;;;;5.15;3.78;;;20.00;99.90;;;;;;5012644;28;20087;-72
2022/07/22 02:33:59;;;;;;;7.47;4.78;;;20.00;99.90;;;;;;5011518;28;20456;-73
2022/07/22 02:36:25;;;;;;;7.30;4.30;;;19.80;99.90;;;;;;5011218;28;20129;-71
2022/07/22 02:38:51;;;;;;;10.18;4.60;;;19.80;99.90;;;;;;5012286;28;20044;-71
2022/07/22 02:41:17;;;;;;;8.25;4.78;;;19.70;99.90;;;;;;5011987;28;20440;-71
2022/07/22 02:43:42;;;;;;;6.45;4.10;;;19.60;99.90;;;;;;5012852;28;20033;-72
2022/07/22 02:46:08;;;;;;;6.22;3.67;;;19.80;99.90;;;;;;5012367;28;20113;-70
2022/07/22 02:48:34;;;;;;;7.43;3.78;;;19.70;99.90;;;;;;5011951;28;20508;-71
2022/07/22 02:51:00;;;;;;;6.05;3.80;;;19.70;99.90;;;;;;5012047;28;20455;-71
2022/07/22 02:53:25;;;;;;;10.43;3.65;;;19.70;99.90;;;;;;5011149;28;20038;-71
2022/07/22 02:55:51;;;;;;;8.88;4.38;;;19.60;99.90;;;;;;5012103;28;20054;-71
2022/07/22 02:58:16;;;;;;;7.70;4.40;;;19.70;99.90;;;;;;5011900;28;20030;-71
2022/07/22 03:00:42;;;;;;;9.80;4.07;;;19.70;99.90;;;;;;5010929;28;20380;-71
2022/07/22 03:03:08;;;;;;;6.70;3.55;;;19.70;99.90;;;;;;5010927;28;20026;-72
2022/07/22 03:05:34;;;;;;;7.00;4.03;;;19.70;99.90;;;;;;5010853;28;20444;-72
2022/07/22 03:07:59;;;;;;;5.90;3.58;;;19.70;99.90;;;;;;5011695;28;20025;-71
2022/07/22 03:10:25;;;;;;;7.28;3.58;;;19.60;99.90;;;;;;5011443;28;20038;-71
2022/07/22 03:12:51;;;;;;;5.18;3.15;;;19.60;99.90;;;;;;5011953;28;20127;-72
2022/07/22 03:15:19;;;;;;;7.90;3.88;;;19.30;99.90;;;;;;5011975;28;20117;-73
2022/07/22 03:17:45;;;;;;;7.55;3.63;;;19.30;99.90;;;;;;5011840;28;20045;-72
2022/07/22 03:20:11;;;;;;;6.72;2.90;;;19.30;99.90;;;;;;5010587;28;20018;-70
2022/07/22 03:22:37;;;;;;;7.82;3.45;;;19.40;99.90;;;;;;5011899;28;20077;-72
2022/07/22 03:25:04;;;;;;;9.27;2.92;;;19.30;99.90;;;;;;5012278;28;20165;-71
2022/07/22 03:27:29;;;;;;;6.13;3.47;;;19.20;99.90;;;;;;5011817;28;20121;-72
2022/07/22 03:29:55;;;;;;;5.20;3.30;;;19.40;99.90;;;;;;5012296;28;20508;-71
2022/07/22 03:32:21;;;;;;;10.43;3.35;;;19.30;99.90;;;;;;5012641;28;20041;-72
2022/07/22 03:34:47;;;;;;;5.82;3.88;;;19.40;99.90;;;;;;5014275;28;20033;-71
2022/07/22 03:37:12;;;;;;;6.55;4.35;;;19.30;99.90;;;;;;5013581;28;20049;-71
2022/07/22 03:39:38;;;;;;;5.38;3.90;;;19.20;99.90;;;;;;5012629;28;20496;-72
2022/07/22 03:42:04;;;;;;;5.25;3.85;;;19.20;99.90;;;;;;5012327;28;20026;-71
2022/07/22 03:44:29;;;;;;;6.88;4.05;;;19.30;99.90;;;;;;5011792;28;20030;-71
2022/07/22 03:46:55;;;;;;;8.25;4.07;;;19.20;99.90;;;;;;5011251;28;20444;-71
2022/07/22 03:49:21;;;;;;;7.38;4.10;;;19.30;99.90;;;;;;5012304;28;20029;-72
2022/07/22 03:51:46;;;;;;;4.78;2.75;;;19.30;99.90;;;;;;5011342;28;20128;-72
2022/07/22 03:54:12;;;;;;;6.80;3.95;;;19.30;99.90;;;;;;5011624;28;20480;-72
2022/07/22 03:56:38;;;;;;;7.07;4.70;;;19.10;99.90;;;;;;5011087;28;20034;-71
2022/07/22 03:59:03;;;;;;;6.80;4.35;;;19.10;99.90;;;;;;5011237;28;20030;-71
2022/07/22 04:01:32;;;;;;;7.80;4.70;;;19.10;99.90;;;;;;5011624;28;20097;-72
2022/07/22 04:03:58;;;;;;;8.48;4.93;;;18.90;99.90;;;;;;5011240;28;20353;-72
2022/07/22 04:06:24;;;;;;;7.68;4.38;;;18.90;99.90;;;;;;5010891;28;20061;-72
2022/07/22 04:08:49;;;;;;;7.88;4.82;;;18.80;99.90;;;;;;5010534;28;20038;-72
2022/07/22 04:11:15;;;;;;;5.80;4.00;;;18.80;99.90;;;;;;5009805;28;20030;-72
2022/07/22 04:13:41;;;;;;;14.57;4.65;;;19.10;99.90;;;;;;5011622;28;20091;-72
2022/07/22 04:16:06;;;;;;;8.00;4.45;;;19.10;99.90;;;;;;5010697;28;20526;-73
2022/07/22 04:18:32;;;;;;;8.43;4.63;;;19.00;99.90;;;;;;5010768;28;20430;-73
2022/07/22 04:20:58;;;;;;;8.10;4.18;;;19.10;99.90;;;;;;5009799;28;20113;-72
2022/07/22 04:23:24;;;;;;;5.47;4.03;;;19.10;99.90;;;;;;5010627;28;20030;-72
2022/07/22 04:25:50;;;;;;;10.73;6.70;;;19.10;99.90;;;;;;5011365;28;20040;-72
2022/07/22 04:28:16;;;;;;;6.82;4.45;;;19.10;99.90;;;;;;5009742;28;20468;-72
2022/07/22 04:30:41;;;;;;;7.43;5.03;;;19.10;99.90;;;;;;5010600;28;20041;-73
2022/07/22 04:33:07;;;;;;;9.07;4.95;;;19.10;99.90;;;;;;5010623;28;20488;-73
2022/07/22 04:35:33;;;;;;;8.25;5.57;;;18.90;99.90;;;;;;5011105;28;20406;-73
2022/07/22 04:37:59;;;;;;;7.68;4.93;;;18.90;99.90;;;;;;5014163;28;20069;-73
2022/07/22 04:40:25;;;;;;;6.65;4.60;;;19.10;99.90;;;;;;5014324;28;20272;-73
2022/07/22 04:42:50;;;;;;;5.30;4.47;;;19.00;99.90;;;;;;5012922;28;20361;-72
2022/07/22 04:45:16;;;;;;;7.38;4.93;;;18.90;99.90;;;;;;5014218;28;20125;-72
2022/07/22 04:47:42;;;;;;;6.85;4.35;;;18.90;99.90;;;;;;5013977;28;20144;-72
2022/07/22 04:50:08;;;;;;;6.70;3.97;;;19.00;99.90;;;;;;5013808;28;20030;-72
2022/07/22 04:52:34;;;;;;;6.28;4.03;;;19.00;99.90;;;;;;5014111;28;20026;-72
2022/07/22 04:54:59;;;;;;;7.45;4.70;;;19.00;99.90;;;;;;5013557;28;20050;-71
2022/07/22 04:57:26;;;;;;;6.13;4.38;;;18.90;99.90;;;;;;5013924;28;20114;-72
2022/07/22 04:59:52;;;;;;;4.68;4.18;;;18.90;99.90;;;;;;5012727;28;20154;-73
2022/07/22 05:02:19;;;;;;;7.00;3.83;;;18.90;99.90;;;;;;5013874;28;20022;-72
2022/07/22 05:04:44;;;;;;;5.10;4.03;;;18.80;99.90;;;;;;5012922;28;20036;-72
2022/07/22 05:07:11;;;;;;;4.75;3.75;;;18.80;99.90;;;;;;5012299;28;20037;-72
2022/07/22 05:09:36;;;;;;;7.25;4.13;;;18.90;99.90;;;;;;5013787;28;20039;-71
2022/07/22 05:12:03;;;;;;;6.65;4.60;;;19.00;99.90;;;;;;5013459;28;20053;-72
2022/07/22 05:14:28;;;;;;;6.65;4.40;;;18.90;99.90;;;;;;5012404;28;20042;-72
2022/07/22 05:16:54;;;;;;;9.88;3.85;;;19.00;99.90;;;;;;5013156;28;20090;-72
2022/07/22 05:19:19;;;;;;;7.22;3.83;;;18.90;99.90;;;;;;5013688;28;20018;-73
2022/07/22 05:21:45;;;;;;;6.70;3.70;;;19.00;99.90;;;;;;5013207;28;20030;-73
2022/07/22 05:24:12;;;;;;;9.18;4.00;;;19.00;99.90;;;;;;5013208;28;20050;-71
2022/07/22 05:26:38;;;;;;;21.60;14.68;;;18.80;99.90;;;;;;5013171;28;20030;-71
2022/07/22 05:29:04;;;;;;;40.05;22.23;;;19.00;99.90;;;;;;5013227;28;20088;-72
2022/07/22 05:31:30;;;;;;;51.60;29.58;;;19.00;99.90;;;;;;5013377;28;20022;-73
2022/07/22 05:33:56;;;;;;;51.78;28.67;;;19.00;99.90;;;;;;5013262;28;20258;-76
2022/07/22 05:36:22;;;;;;;64.53;35.15;;;19.10;99.90;;;;;;5013289;28;20141;-73
2022/07/22 05:38:47;;;;;;;12.85;6.78;;;19.10;99.90;;;;;;5012807;28;20432;-74
2022/07/22 05:41:13;;;;;;;8.00;5.78;;;19.00;99.90;;;;;;5012849;28;20743;-73
2022/07/22 05:43:39;;;;;;;7.80;5.60;;;19.00;99.90;;;;;;5012315;28;20030;-74
2022/07/22 05:46:07;;;;;;;13.23;6.85;;;19.00;99.90;;;;;;5012551;28;20045;-76
2022/07/22 05:48:32;;;;;;;10.82;5.50;;;19.20;99.90;;;;;;5011650;28;20041;-70
2022/07/22 05:50:58;;;;;;;92.20;46.80;;;19.30;99.90;;;;;;5006738;28;20225;-74
2022/07/22 05:53:24;;;;;;;104.53;62.28;;;19.40;99.90;;;;;;4997422;28;20042;-76
2022/07/22 05:55:50;;;;;;;95.93;49.08;;;19.30;99.90;;;;;;5028270;28;20049;-75
2022/07/22 05:58:16;;;;;;;12.68;7.05;;;19.40;99.90;;;;;;5008423;28;20030;-73
2022/07/22 06:00:42;;;;;;;12.23;5.18;;;19.40;99.90;;;;;;5007726;28;20037;-74
2022/07/22 06:03:07;;;;;;;8.48;5.45;;;19.10;99.90;;;;;;5012793;28;20033;-75
2022/07/22 06:05:35;;;;;;;11.02;5.75;;;19.20;99.90;;;;;;5008943;28;20061;-74
2022/07/22 06:08:01;;;;;;;10.05;5.40;;;19.20;99.90;;;;;;4995388;28;20195;-75
2022/07/22 06:10:27;;;;;;;10.82;4.78;;;19.20;99.90;;;;;;5013758;28;20033;-75
2022/07/22 06:12:53;;;;;;;8.07;5.40;;;19.20;99.90;;;;;;5013464;28;20084;-76
2022/07/22 06:15:18;;;;;;;8.50;5.68;;;19.20;99.90;;;;;;5013104;28;20091;-74
2022/07/22 06:17:44;;;;;;;13.45;5.72;;;19.20;99.90;;;;;;5013586;28;20038;-77
2022/07/22 06:20:10;;;;;;;8.60;4.72;;;19.20;99.90;;;;;;5013604;28;20130;-79
2022/07/22 06:22:36;;;;;;;9.85;5.10;;;19.30;99.90;;;;;;5014202;28;20029;-75
2022/07/22 06:25:01;;;;;;;7.38;4.75;;;19.30;99.90;;;;;;5013407;28;20475;-77
2022/07/22 06:27:27;;;;;;;7.82;4.82;;;19.30;99.90;;;;;;5013251;28;20026;-76
2022/07/22 06:29:53;;;;;;;51.22;35.05;;;19.30;99.90;;;;;;5013071;28;20341;-77
2022/07/22 06:32:18;;;;;;;17.08;10.15;;;19.20;99.90;;;;;;5012843;28;20034;-77
2022/07/22 06:34:44;;;;;;;39.85;30.42;;;19.10;99.90;;;;;;5028851;28;20022;-73
2022/07/22 06:37:10;;;;;;;68.82;53.72;;;19.20;99.90;;;;;;5013335;28;20419;-74
2022/07/22 06:39:35;;;;;;;9.93;5.00;;;19.20;99.90;;;;;;5012639;28;20121;-72
2022/07/22 06:42:01;;;;;;;10.93;5.25;;;19.40;99.90;;;;;;5028173;28;20572;-72
2022/07/22 06:44:26;;;;;;;9.80;5.22;;;19.30;99.90;;;;;;5008743;28;20062;-75
2022/07/22 06:46:52;;;;;;;7.68;5.13;;;19.20;99.90;;;;;;4992308;28;20420;-73
2022/07/22 06:49:18;;;;;;;7.70;4.97;;;19.10;99.90;;;;;;5008166;28;20038;-73
2022/07/22 06:51:44;;;;;;;9.52;5.85;;;19.10;99.90;;;;;;5007634;28;20026;-72
2022/07/22 06:54:10;;;;;;;9.60;4.95;;;19.00;99.90;;;;;;5012672;28;20030;-73
2022/07/22 06:56:35;;;;;;;9.02;5.43;;;18.90;99.90;;;;;;5012300;28;20042;-73
2022/07/22 06:59:01;;;;;;;9.77;5.78;;;19.00;99.90;;;;;;5011608;28;20033;-71
2022/07/22 07:01:27;;;;;;;11.38;5.60;;;19.10;99.90;;;;;;5012926;28;20083;-73
2022/07/22 07:03:53;;;;;;;11.50;5.88;;;19.20;99.90;;;;;;5012359;28;20030;-74
2022/07/22 07:06:18;;;;;;;14.32;5.88;;;19.20;99.90;;;;;;5011888;28;20100;-71
2022/07/22 07:08:44;;;;;;;13.80;5.05;;;19.30;99.80;;;;;;5012238;28;20439;-72
2022/07/22 07:11:10;;;;;;;8.35;4.47;;;19.40;99.70;;;;;;5012153;28;20098;-73
2022/07/22 07:13:36;;;;;;;7.13;4.10;;;19.30;99.70;;;;;;5012246;28;20054;-72
2022/07/22 07:16:01;;;;;;;7.05;3.70;;;19.40;99.60;;;;;;5027244;28;20034;-74
2022/07/22 07:18:27;;;;;;;4.57;3.28;;;19.40;99.60;;;;;;5012363;28;20103;-71
2022/07/22 07:20:53;;;;;;;5.78;3.35;;;19.50;99.30;;;;;;5011413;28;20095;-71
2022/07/22 07:23:19;;;;;;;5.43;3.20;;;19.50;99.00;;;;;;5011722;28;20030;-72
2022/07/22 07:25:44;;;;;;;57.08;29.00;;;19.40;98.90;;;;;;5012303;28;20475;-73
2022/07/22 07:28:10;;;;;;;77.25;44.35;;;19.50;99.00;;;;;;5007397;28;20045;-70
2022/07/22 07:30:36;;;;;;;62.15;31.98;;;19.60;99.00;;;;;;5005298;28;20041;-71
2022/07/22 07:33:02;;;;;;;9.20;4.38;;;19.60;99.00;;;;;;5011335;28;20069;-70
2022/07/22 07:35:28;;;;;;;10.48;4.05;;;19.40;99.00;;;;;;5011320;28;20026;-68
2022/07/22 07:37:54;;;;;;;6.18;3.67;;;19.40;99.30;;;;;;5011067;28;20100;-69
2022/07/22 07:40:20;;;;;;;5.47;4.03;;;19.40;99.30;;;;;;5010552;28;20038;-71
2022/07/22 07:42:46;;;;;;;9.15;5.90;;;19.40;99.30;;;;;;5011395;28;20422;-70
2022/07/22 07:45:12;;;;;;;42.63;35.17;;;19.40;99.50;;;;;;5010856;28;20049;-70
2022/07/22 07:47:38;;;;;;;11.98;4.22;;;19.30;99.60;;;;;;5010855;28;20044;-69
2022/07/22 07:50:07;;;;;;;8.10;4.00;;;19.40;99.40;;;;;;5011431;28;20368;-70
2022/07/22 07:52:41;;;;;;;8.20;3.08;;;19.50;99.40;;;;;;5026885;28;20041;-70
2022/07/22 07:55:08;;;;;;;6.30;2.90;;;19.60;99.20;;;;;;5010909;28;20443;-71
2022/07/22 07:57:34;;;;;;;4.50;2.50;;;19.70;98.90;;;;;;5010899;28;20022;-70
2022/07/22 08:00:00;;;;;;;5.15;2.78;;;20.00;98.70;;;;;;5010752;28;20129;-69
2022/07/22 08:02:26;;;;;;;8.82;2.60;;;20.10;98.50;;;;;;5011108;28;20029;-70
2022/07/22 08:04:52;;;;;;;3.70;2.42;;;20.20;98.20;;;;;;5010127;28;20436;-70
2022/07/22 08:07:18;;;;;;;5.60;3.15;;;20.40;97.80;;;;;;5009816;28;20084;-70
2022/07/22 08:09:43;;;;;;;6.93;2.65;;;20.50;97.60;;;;;;5013048;28;20030;-70
2022/07/22 08:12:09;;;;;;;10.10;2.95;;;20.60;97.50;;;;;;5014917;28;20037;-70
2022/07/22 08:14:34;;;;;;;12.35;2.55;;;20.70;97.30;;;;;;5015134;28;20038;-72
2022/07/22 08:17:01;;;;;;;5.80;2.10;;;20.90;97.10;;;;;;5025880;28;20373;-73
2022/07/22 08:19:26;;;;;;;4.95;2.22;;;20.50;96.70;;;;;;5035006;28;20408;-71
2022/07/22 08:21:53;;;;;;;7.50;2.47;;;20.70;96.90;;;;;;5034660;28;20038;-72
2022/07/22 08:24:20;;;;;;;12.50;2.22;;;20.60;96.70;;;;;;5034819;28;20037;-74
2022/07/22 08:26:46;;;;;;;11.40;2.30;;;20.60;96.50;;;;;;5034952;28;20029;-72
2022/07/22 08:29:12;;;;;;;6.47;2.20;;;20.50;96.90;;;;;;5034489;28;20025;-72
2022/07/22 08:31:38;;;;;;;6.35;2.17;;;20.60;96.60;;;;;;5034069;28;20467;-72
2022/07/22 08:34:05;;;;;;;4.78;2.30;;;20.60;96.10;;;;;;5034267;28;20026;-73
2022/07/22 08:36:31;;;;;;;4.40;2.00;;;20.40;96.40;;;;;;5034488;28;20040;-73
2022/07/22 08:38:56;;;;;;;5.35;2.15;;;20.50;96.60;;;;;;5034369;28;20129;-71
2022/07/22 08:41:23;;;;;;;5.53;2.03;;;20.50;96.50;;;;;;5033945;28;20036;-70
2022/07/22 08:43:50;;;;;;;31.63;18.10;;;20.50;96.50;;;;;;5034719;28;20021;-72
2022/07/22 08:46:16;;;;;;;9.68;2.90;;;20.40;96.50;;;;;;5033790;28;20467;-68
2022/07/22 08:48:41;;;;;;;7.25;2.30;;;20.50;96.30;;;;;;5034965;28;20052;-74
2022/07/22 08:51:08;;;;;;;6.47;2.28;;;20.20;96.90;;;;;;5034963;28;20419;-74
2022/07/22 08:53:34;;;;;;;7.07;2.95;;;20.00;96.80;;;;;;5035393;28;20035;-74
2022/07/22 08:56:00;;;;;;;10.77;2.30;;;19.90;97.10;;;;;;5033959;28;20445;-70
2022/07/22 08:58:27;;;;;;;5.38;2.20;;;19.90;97.00;;;;;;5034983;28;20318;-69
2022/07/22 09:01:13;;;;;;;9.48;3.00;;;20.00;96.90;;;;;;5034111;28;20041;-71
2022/07/22 09:03:46;;;;;;;8.10;1.90;;;20.10;97.00;;;;;;5017535;28;20034;-71
2022/07/22 09:06:12;;;;;;;13.43;8.38;;;20.20;96.80;;;;;;5012920;28;20273;-71
2022/07/22 09:09:03;;;;;;;9.07;4.57;;;20.30;96.70;;;;;;5012727;28;20062;-71
2022/07/22 09:11:30;;;;;;;7.45;3.38;;;20.40;96.50;;;;;;5013917;28;20037;-71
2022/07/22 09:13:57;;;;;;;5.82;2.58;;;20.50;96.20;;;;;;5013872;28;20114;-71
2022/07/22 09:16:38;;;;;;;3.20;2.37;;;20.40;96.30;;;;;;5014338;28;20029;-70
2022/07/22 09:19:04;;;;;;;4.65;2.20;;;20.60;96.30;;;;;;5013286;28;20084;-71
2022/07/22 09:21:30;;;;;;;9.68;2.63;;;20.50;96.20;;;;;;5012620;28;20034;-70
2022/07/22 09:23:56;;;;;;;6.45;2.20;;;20.50;96.50;;;;;;5013816;28;20042;-73
2022/07/22 09:26:39;;;;;;;44.17;29.25;;;20.60;96.30;;;;;;5013884;28;20537;-71
2022/07/22 09:29:06;;;;;;;40.17;23.65;;;20.60;96.40;;;;;;5013628;28;20062;-71
2022/07/22 09:31:36;;;;;;;13.35;6.38;;;20.70;96.50;;;;;;5014393;28;20411;-71
2022/07/22 09:34:03;;;;;;;8.38;2.65;;;20.70;96.10;;;;;;5013752;28;20527;-68
2022/07/22 09:36:30;;;;;;;9.18;2.90;;;20.60;96.10;;;;;;5013659;28;20042;-73
2022/07/22 09:38:56;;;;;;;7.65;2.25;;;20.60;96.20;;;;;;5013902;28;20037;-73
2022/07/22 09:41:22;;;;;;;11.80;2.80;;;20.60;96.20;;;;;;5013510;28;20118;-70
2022/07/22 09:43:49;;;;;;;10.63;3.25;;;20.80;96.10;;;;;;5013876;28;20338;-69
2022/07/22 09:46:16;;;;;;;7.40;2.72;;;20.50;96.20;;;;;;5013275;28;20498;-70
2022/07/22 09:48:42;;;;;;;9.05;3.03;;;20.80;96.50;;;;;;5012973;28;20074;-69
2022/07/22 09:51:08;;;;;;;12.38;3.03;;;20.80;96.30;;;;;;5013260;28;20551;-70
2022/07/22 09:53:34;;;;;;;17.35;5.93;;;21.00;96.40;;;;;;5013055;28;20073;-68
2022/07/22 09:56:07;;;;;;;13.00;3.85;;;21.10;96.40;;;;;;5012960;28;20050;-70
2022/07/22 09:58:32;;;;;;;12.38;4.43;;;21.30;96.30;;;;;;5013430;28;20095;-70
2022/07/22 10:01:02;;;;;;;12.80;4.00;;;21.20;96.20;;;;;;5013001;28;20030;-71
2022/07/22 10:03:30;;;;;;;7.05;3.47;;;21.20;96.00;;;;;;5012899;28;20038;-69
2022/07/22 10:05:58;;;;;;;10.98;3.67;;;21.00;96.20;;;;;;5011633;28;20066;-69
2022/07/22 10:08:26;;;;;;;14.13;3.77;;;21.10;96.30;;;;;;5012768;28;20349;-71
2022/07/22 10:10:53;;;;;;;10.00;3.85;;;21.10;96.20;;;;;;5012884;28;20066;-70
2022/07/22 10:13:19;;;;;;;8.45;2.47;;;20.90;96.40;;;;;;5012564;28;20037;-71
2022/07/22 10:15:46;;;;;;;14.73;4.40;;;20.80;96.30;;;;;;5012715;28;20030;-70
2022/07/22 10:18:17;;;;;;;6.68;3.50;;;20.90;96.10;;;;;;5012433;28;20041;-70
2022/07/22 10:20:43;;;;;;;7.40;3.10;;;21.00;96.60;;;;;;5012706;28;20034;-70
2022/07/22 10:23:11;;;;;;;8.43;3.25;;;20.80;96.40;;;;;;5012605;28;20093;-68
2022/07/22 10:26:00;;;;;;;8.38;2.50;;;21.00;96.00;;;;;;5012953;28;20021;-70
2022/07/22 10:28:29;;;;;;;4.22;2.05;;;20.90;95.80;;;;;;5012592;28;20069;-69
2022/07/22 10:31:14;;;;;;;3.88;2.10;;;21.00;95.50;;;;;;5011391;28;20100;-70
2022/07/22 10:33:40;;;;;;;6.18;2.25;;;21.00;95.40;;;;;;5012324;28;20507;-69
2022/07/22 10:36:08;;;;;;;3.03;2.20;;;20.80;95.40;;;;;;5012179;28;20034;-70
2022/07/22 10:38:34;;;;;;;9.80;5.88;;;20.90;95.10;;;;;;5011751;28;20057;-70
2022/07/22 10:41:05;;;;;;;17.17;7.30;;;20.60;95.30;;;;;;5011064;28;20356;-70
2022/07/22 10:43:43;;;;;;;8.80;2.90;;;20.80;95.60;;;;;;5012494;28;20499;-72
2022/07/22 10:46:09;;;;;;;9.05;2.35;;;21.00;95.30;;;;;;5012359;28;20049;-73
2022/07/22 10:48:38;;;;;;;9.80;2.65;;;21.20;95.20;;;;;;5012076;28;20030;-71
2022/07/22 10:51:10;;;;;;;6.90;2.80;;;21.10;94.90;;;;;;5011651;28;20141;-70
2022/07/22 10:53:41;;;;;;;9.70;2.72;;;21.10;95.00;;;;;;5011982;28;20018;-70
2022/07/22 10:56:12;;;;;;;22.67;13.10;;;21.00;95.10;;;;;;5011637;28;20129;-69
2022/07/22 10:58:38;;;;;;;265.25;133.98;;;20.80;95.10;;;;;;5011902;28;20453;-69
2022/07/22 11:01:10;;;;;;;49.80;25.95;;;20.80;95.30;;;;;;5011566;28;20464;-70
2022/07/22 11:03:38;;;;;;;8.00;3.67;;;20.90;95.40;;;;;;5011895;28;20049;-71
2022/07/22 11:06:28;;;;;;;10.20;2.63;;;20.90;95.30;;;;;;5011128;28;20087;-70
2022/07/22 11:08:59;;;;;;;5.18;2.47;;;20.90;95.10;;;;;;5010889;28;20049;-68
2022/07/22 11:11:32;;;;;;;5.78;2.60;;;20.80;95.00;;;;;;5011557;28;20460;-70
2022/07/22 11:13:59;;;;;;;7.95;3.00;;;20.80;95.00;;;;;;5011727;28;20118;-69
2022/07/22 11:16:26;;;;;;;8.75;2.38;;;20.70;95.00;;;;;;5012133;28;20073;-70
2022/07/22 11:18:54;;;;;;;9.63;3.53;;;20.70;95.00;;;;;;5011745;28;20456;-70
2022/07/22 11:21:22;;;;;;;5.68;2.22;;;20.70;94.80;;;;;;5011425;28;20033;-71
2022/07/22 11:23:50;;;;;;;68.00;37.47;;;20.80;95.00;;;;;;5011500;28;20061;-71
2022/07/22 11:26:19;;;;;;;224.60;141.90;;;20.80;94.80;;;;;;5011463;28;20050;-69
2022/07/22 11:28:45;;;;;;;56.70;30.50;;;20.80;94.60;;;;;;5011885;28;20018;-68
2022/07/22 11:31:15;;;;;;;6.82;3.72;;;20.80;94.70;;;;;;5011286;28;20026;-68
2022/07/22 11:33:41;;;;;;;7.13;2.78;;;21.00;94.80;;;;;;5010939;28;20526;-68
2022/07/22 11:36:11;;;;;;;9.45;3.08;;;21.10;94.50;;;;;;5011345;28;20034;-69
2022/07/22 11:38:46;;;;;;;9.68;2.80;;;21.00;94.30;;;;;;5011248;28;20381;-68
2022/07/22 11:41:15;;;;;;;5.03;2.78;;;21.10;94.30;;;;;;5011138;28;20137;-69
2022/07/22 11:43:47;;;;;;;5.07;2.92;;;21.10;94.30;;;;;;5012430;28;20056;-69
2022/07/22 11:46:14;;;;;;;5.50;2.83;;;21.00;94.20;;;;;;5015134;28;20026;-69
2022/07/22 11:48:42;;;;;;;7.45;2.92;;;21.10;94.20;;;;;;5015147;28;20041;-69
2022/07/22 11:51:10;;;;;;;11.50;4.55;;;21.20;94.20;;;;;;5015323;28;20040;-69
2022/07/22 11:53:36;;;;;;;19.35;3.83;;;21.30;94.10;;;;;;5015141;28;20030;-70
2022/07/22 11:56:07;;;;;;;11.88;3.00;;;21.40;94.10;;;;;;5014670;28;20065;-69
2022/07/22 11:58:38;;;;;;;7.03;2.78;;;21.30;93.90;;;;;;5015434;28;20366;-69
2022/07/22 12:01:08;;;;;;;6.55;3.13;;;21.10;93.80;;;;;;5014978;28;20034;-69
2022/07/22 12:03:39;;;;;;;6.30;3.45;;;21.00;94.10;;;;;;5014819;28;20046;-69
2022/07/22 12:06:10;;;;;;;11.27;3.28;;;21.00;93.90;;;;;;5015142;28;20042;-70
2022/07/22 12:08:41;;;;;;;9.10;2.92;;;21.10;93.90;;;;;;5015046;28;20030;-68
2022/07/22 12:11:08;;;;;;;12.88;2.90;;;21.30;94.10;;;;;;5014647;28;20061;-69
2022/07/22 12:13:34;;;;;;;9.02;2.65;;;21.20;93.80;;;;;;5015043;28;20045;-69
2022/07/22 12:15:59;;;;;;;3.30;2.13;;;21.20;93.70;;;;;;5014530;28;20042;-69
2022/07/22 12:18:27;;;;;;;8.93;3.08;;;21.20;93.80;;;;;;5014475;28;20030;-69
2022/07/22 12:20:55;;;;;;;9.48;2.72;;;21.20;93.70;;;;;;5014535;28;20042;-70
2022/07/22 12:23:26;;;;;;;7.70;2.92;;;21.10;93.60;;;;;;5014606;28;20465;-69
2022/07/22 12:25:52;;;;;;;7.93;2.33;;;21.20;93.50;;;;;;5015327;28;20010;-69
2022/07/22 12:28:18;;;;;;;4.95;2.58;;;21.20;93.50;;;;;;5014296;28;20049;-69
2022/07/22 12:30:45;;;;;;;7.50;2.88;;;21.20;93.60;;;;;;5014399;28;20026;-69
2022/07/22 12:33:15;;;;;;;18.60;3.47;;;21.30;93.60;;;;;;5014795;28;20044;-70
2022/07/22 12:35:41;;;;;;;5.85;2.45;;;21.30;93.50;;;;;;5013416;28;20363;-70
2022/07/22 12:38:08;;;;;;;4.68;2.40;;;21.20;93.60;;;;;;5014568;28;20360;-70
2022/07/22 12:40:34;;;;;;;8.65;3.10;;;21.30;93.70;;;;;;5014882;28;20050;-70